Terminal Aerodrome Forecast
Issued by NWS

Home | Current Version | Previous Version | Graphics & Text | Print | Product List | Glossary On
Versions: 1 2 3 4 5 6 7 8 9 10 11 12 13 14 15 16 17 18 19 20 21 22
000
FTUS43 KGRB 241659 AAA
TAFATW
TAF AMD
KATW 241659Z 2417/2512 08009KT P6SM SCT019 BKN023
     FM242100 08010G17KT P6SM BKN080
     FM250200 08016G28KT 5SM -RAPL BR BKN020
     FM250400 10012G25KT 2SM RA BR OVC003
     FM250900 23015G25KT 1 1/2SM -RASN OVC008=

USA.gov is the U.S. government's official web portal to all federal, state and local government web resources and services.